Airport View

Enter AWOS ICAO identifier for current METAR.

ex. KFNL

PFYU 051156Z AUTO 00000KT 10SM BKN070 09/08 A2971

5 Aug 2020 12:54

Frequency: 125.8

Phone: 907-662-2337

Other Area AWOS: PARC

TAF PAFB 050700Z 0507/0613 VRB06KT 8000 BR SCT100 QNH2970INS BECMG 0509/0510 VRB06KT 8000 BR BKN020 QNH2973INS BECMG 0518/0519 VRB06KT 8000 BR SCT020 QNH2970INS BECMG 0521/0522 VRB06KT 9000 BR SCT026 QNH2945INS TX20/0603Z TN13/0514Z